BIENTÔT MET'MAP
version 2.0 !

Prévue avant fin octobre,
la nouvelle version sera
plus belle, plus complète
et hébergée sur un serveur
3 fois plus puissant...
et toujours gratuite !


Pas compatible ?
Essayez la version Mobile !

SE CONNECTER : | S'inscrire | Disclaimer | Découvrir Orbifly |
Code OACI :

TAF - LTBJ Adnan Menderes - 01 Jun 2020 22:08 UTC - Data Source NOAA   


- Altitude de l'aérodrome : 412 ft
- Code IATA : ADB
- Pas de NOTAMs connus.


LTBJ - Adnan Menderes

Dernier METAR connu : 2015/08/11 07:50 LTBJ 110750Z 22004KT 170V320 9999 FEW030 29/19 Q1010 BECMG 35012KT
TAF TAF LTBJ
Valide du 01 à 18h jusqu'au 02 à 18h UTC


011640Z 0118/0218 VRB02KT 9999 -SHRA SCT030 BKN100
PROB40
TEMPO 0206/0210 -TSRA FEW015CB BKN025
BECMG 0209/0211 35012KT

Source NOAA


MET'MAP, la Météo Aéronautique d'un coup d'oeil ! - Copyright ORBIFLY Décembre 2007

Développement & Programmation : Alexandra Zaïnal
Co-Développement : Marc-Olivier Méhu
Soutien technique & logistique : Manuel Goepfert
Conception & Financement : Baudouin d'Aumeries